Time;durP1;ratioP1;P1;durP2;ratioP2;P2;SDS_P1;SDS_P2;PMS_P1;PMS_P2;Temp;Humidity;BMP_temperature;BMP_pressure;BME280_temperature;BME280_humidity;BME280_pressure;Samples;Min_cycle;Max_cycle;Signal;HPM_P1;HPM_P2
2022/08/04 00:01:03;;;;;;;21.25;5.25;;;19.30;99.90;;;;;;5017157;28;20080;-62
2022/08/04 00:03:39;;;;;;;17.75;5.50;;;19.30;99.90;;;;;;5028184;28;20454;-58
2022/08/04 00:06:14;;;;;;;17.58;5.72;;;19.30;99.90;;;;;;5029135;28;20061;-64
2022/08/04 00:08:48;;;;;;;18.27;5.10;;;19.30;99.90;;;;;;5029181;28;20090;-63
2022/08/04 00:11:20;;;;;;;21.33;5.47;;;19.30;99.90;;;;;;5024939;28;20064;-62
2022/08/04 00:13:58;;;;;;;19.83;6.25;;;19.30;99.90;;;;;;5030444;28;20049;-64
2022/08/04 00:16:29;;;;;;;16.53;5.37;;;19.20;99.90;;;;;;5010356;28;20041;-61
2022/08/04 00:19:03;;;;;;;22.50;6.05;;;19.20;99.90;;;;;;5030126;28;20273;-66
2022/08/04 00:21:34;;;;;;;17.10;6.38;;;19.20;99.90;;;;;;5026205;28;20107;-56
2022/08/04 00:24:01;;;;;;;18.38;5.07;;;19.10;99.90;;;;;;5010709;28;20050;-59
2022/08/04 00:26:27;;;;;;;16.17;5.28;;;19.10;99.90;;;;;;5011901;28;20053;-65
2022/08/04 00:28:55;;;;;;;19.23;6.05;;;19.10;99.90;;;;;;5027594;28;20049;-59
2022/08/04 00:31:22;;;;;;;18.38;6.32;;;19.00;99.90;;;;;;5029201;28;20084;-60
2022/08/04 00:33:48;;;;;;;28.27;6.63;;;19.00;99.90;;;;;;5027362;28;20054;-65
2022/08/04 00:36:15;;;;;;;25.02;6.20;;;19.00;99.90;;;;;;5029258;28;20050;-62
2022/08/04 00:38:42;;;;;;;17.15;5.40;;;19.00;99.90;;;;;;5028955;28;20052;-57
2022/08/04 00:41:24;;;;;;;25.33;6.55;;;19.00;99.90;;;;;;5029028;28;20079;-62
2022/08/04 00:44:21;;;;;;;18.40;6.50;;;18.90;99.90;;;;;;5014525;28;20052;-62
2022/08/04 00:46:49;;;;;;;20.73;5.72;;;18.90;99.90;;;;;;5008485;28;20061;-62
2022/08/04 00:49:33;;;;;;;23.67;5.93;;;18.90;99.90;;;;;;4992056;28;20050;-67
2022/08/04 00:52:28;;;;;;;23.80;7.00;;;18.90;99.90;;;;;;4992970;28;20092;-65
2022/08/04 00:55:37;;;;;;;19.23;6.30;;;18.90;99.90;;;;;;4995667;28;20050;-66
2022/08/04 00:58:42;;;;;;;17.42;6.07;;;18.80;99.90;;;;;;5009138;28;20057;-62
2022/08/04 01:01:35;;;;;;;29.63;7.20;;;18.80;99.90;;;;;;5020786;28;20057;-64
2022/08/04 01:04:09;;;;;;;18.85;6.32;;;18.80;99.90;;;;;;5027475;28;20105;-59
2022/08/04 01:07:16;;;;;;;31.33;6.65;;;18.80;99.90;;;;;;5012678;28;20060;-63
2022/08/04 01:10:07;;;;;;;27.13;6.80;;;18.80;99.90;;;;;;4998263;28;20054;-66
2022/08/04 01:12:51;;;;;;;21.60;6.90;;;18.80;99.90;;;;;;5026790;28;20049;-58
2022/08/04 01:15:29;;;;;;;16.95;6.43;;;18.80;99.90;;;;;;5027433;28;20056;-60
2022/08/04 01:18:03;;;;;;;28.05;7.45;;;18.90;99.90;;;;;;5028494;28;20564;-61
2022/08/04 01:20:34;;;;;;;20.88;7.50;;;18.90;99.90;;;;;;5025844;28;20046;-61
2022/08/04 01:23:27;;;;;;;17.65;6.78;;;18.90;99.90;;;;;;5018838;28;20041;-62
2022/08/04 01:26:12;;;;;;;19.55;6.72;;;18.90;99.90;;;;;;5000857;28;20446;-58
2022/08/04 01:28:56;;;;;;;20.05;6.43;;;18.90;99.90;;;;;;5018059;28;20099;-60
2022/08/04 01:31:46;;;;;;;31.05;7.57;;;18.90;99.90;;;;;;5027002;28;20037;-59
2022/08/04 01:34:13;;;;;;;24.60;7.78;;;19.00;99.90;;;;;;5013873;28;20058;-61
2022/08/04 01:36:46;;;;;;;21.35;7.38;;;18.90;99.90;;;;;;5027705;28;20049;-58
2022/08/04 01:42:01;;;;;;;22.77;6.85;;;18.90;99.90;;;;;;5027142;28;20037;-58
2022/08/04 01:44:28;;;;;;;25.52;7.22;;;18.90;99.90;;;;;;5028055;28;20041;-65
2022/08/04 01:46:54;;;;;;;24.60;7.15;;;18.90;99.90;;;;;;5026741;28;20587;-67
2022/08/04 01:49:21;;;;;;;23.70;7.05;;;18.80;99.90;;;;;;5027032;28;20404;-62
2022/08/04 01:51:51;;;;;;;23.13;8.05;;;18.80;99.90;;;;;;5023795;28;20391;-66
2022/08/04 01:54:18;;;;;;;21.80;6.95;;;18.80;99.90;;;;;;5027940;28;20041;-65
2022/08/04 01:56:48;;;;;;;29.17;7.68;;;18.70;99.90;;;;;;5027310;28;20450;-59
2022/08/04 01:59:17;;;;;;;24.98;7.90;;;18.70;99.90;;;;;;5015385;28;20727;-59
2022/08/04 02:01:42;;;;;;;25.08;7.22;;;18.70;99.90;;;;;;5022018;28;20037;-59
2022/08/04 02:04:13;;;;;;;27.08;7.55;;;18.70;99.90;;;;;;5026825;28;20500;-65
2022/08/04 02:07:01;;;;;;;27.77;7.72;;;18.60;99.90;;;;;;5027891;28;20042;-69
2022/08/04 02:09:55;;;;;;;27.08;7.40;;;18.60;99.90;;;;;;5012942;28;20052;-59
2022/08/04 02:12:45;;;;;;;29.23;7.53;;;18.60;99.90;;;;;;5026717;28;20173;-61
2022/08/04 02:15:21;;;;;;;32.10;8.68;;;18.60;99.90;;;;;;5017106;28;20384;-61
2022/08/04 02:17:52;;;;;;;28.98;8.25;;;18.60;99.90;;;;;;5026400;28;20125;-58
2022/08/04 02:20:28;;;;;;;32.40;7.80;;;18.50;99.90;;;;;;5008522;28;20309;-59
2022/08/04 02:23:14;;;;;;;21.58;7.22;;;18.50;99.90;;;;;;5007762;28;20096;-58
2022/08/04 02:25:45;;;;;;;23.20;7.95;;;18.50;99.90;;;;;;5006285;28;20177;-61
2022/08/04 02:28:23;;;;;;;25.00;7.53;;;18.50;99.90;;;;;;5007943;28;20092;-68
2022/08/04 02:31:00;;;;;;;23.40;7.60;;;18.50;99.90;;;;;;5006836;28;20050;-57
2022/08/04 02:33:35;;;;;;;28.67;8.82;;;18.50;99.90;;;;;;5026062;28;20049;-67
2022/08/04 02:36:04;;;;;;;25.75;7.60;;;18.50;99.90;;;;;;5026636;28;20095;-66
2022/08/04 02:38:55;;;;;;;27.70;7.35;;;18.40;99.90;;;;;;5024892;28;20095;-66
2022/08/04 02:41:23;;;;;;;24.33;7.35;;;18.40;99.90;;;;;;5027321;28;20091;-67
2022/08/04 02:43:50;;;;;;;20.73;7.18;;;18.40;99.90;;;;;;5026576;28;20095;-59
2022/08/04 02:46:19;;;;;;;23.75;7.88;;;18.40;99.90;;;;;;5026720;28;20503;-59
2022/08/04 02:48:47;;;;;;;19.67;6.87;;;18.40;99.90;;;;;;5023339;28;20055;-59
2022/08/04 02:51:15;;;;;;;18.65;8.73;;;18.40;99.90;;;;;;5025835;28;20304;-63
2022/08/04 02:53:42;;;;;;;25.02;8.15;;;18.40;99.90;;;;;;5026418;28;20702;-58
2022/08/04 02:56:10;;;;;;;25.60;7.45;;;18.40;99.90;;;;;;5024416;28;20065;-60
2022/08/04 02:58:37;;;;;;;19.30;7.57;;;18.30;99.90;;;;;;5039311;28;20463;-58
2022/08/04 03:01:04;;;;;;;24.15;7.38;;;18.40;99.90;;;;;;5021525;28;20487;-63
2022/08/04 03:04:06;;;;;;;18.20;5.95;;;18.40;99.90;;;;;;5041280;28;20100;-64
2022/08/04 03:06:47;;;;;;;23.58;6.90;;;18.30;99.90;;;;;;5046683;28;20041;-65
2022/08/04 03:09:50;;;;;;;17.55;6.32;;;18.30;99.90;;;;;;5014428;28;20108;-59
2022/08/04 03:12:31;;;;;;;14.07;6.55;;;18.20;99.90;;;;;;5045788;28;20060;-61
2022/08/04 03:15:15;;;;;;;21.98;7.22;;;18.20;99.90;;;;;;5014152;28;20084;-66
2022/08/04 03:17:59;;;;;;;13.20;6.03;;;18.10;99.90;;;;;;5026902;28;20402;-59
2022/08/04 03:20:52;;;;;;;20.17;5.82;;;18.10;99.90;;;;;;5034677;28;20151;-64
2022/08/04 03:23:28;;;;;;;13.60;6.13;;;18.00;99.90;;;;;;5027150;28;20064;-61
2022/08/04 03:26:18;;;;;;;11.50;5.03;;;18.00;99.90;;;;;;5043617;28;20041;-63
2022/08/04 03:28:59;;;;;;;13.88;4.88;;;17.90;99.90;;;;;;5031223;28;20084;-63
2022/08/04 03:31:57;;;;;;;11.68;5.05;;;17.90;99.90;;;;;;5036194;28;20438;-58
2022/08/04 03:34:50;;;;;;;16.77;6.55;;;17.80;99.90;;;;;;5052004;28;20052;-63
2022/08/04 03:37:40;;;;;;;12.93;4.95;;;17.80;99.90;;;;;;5031684;28;20049;-62
2022/08/04 03:40:34;;;;;;;14.82;5.45;;;17.80;99.90;;;;;;5033250;28;20104;-61
2022/08/04 03:43:14;;;;;;;15.35;5.05;;;17.80;99.90;;;;;;5039747;28;20057;-61
2022/08/04 03:46:13;;;;;;;16.67;4.97;;;17.80;99.90;;;;;;5034915;28;20099;-67
2022/08/04 03:49:03;;;;;;;;;;;17.80;99.90;;;;;;5052500;28;20087;-66
2022/08/04 03:55:05;;;;;;;9.38;4.95;;;17.80;99.90;;;;;;5013273;28;20451;-59
2022/08/04 03:58:15;;;;;;;15.60;5.40;;;17.80;99.90;;;;;;5028336;28;20480;-61
2022/08/04 04:01:00;;;;;;;16.65;4.93;;;17.80;99.90;;;;;;5013333;28;20049;-58
2022/08/04 04:03:25;;;;;;;18.15;6.22;;;17.70;99.90;;;;;;5047563;28;20041;-66
2022/08/04 04:06:03;;;;;;;15.10;6.30;;;17.70;99.90;;;;;;5052009;28;20048;-69
2022/08/04 04:08:39;;;;;;;18.15;5.47;;;17.70;99.90;;;;;;5020092;28;20128;-67
2022/08/04 04:11:07;;;;;;;11.55;5.70;;;17.80;99.90;;;;;;5050135;28;20084;-63
2022/08/04 04:13:48;;;;;;;20.97;6.83;;;17.70;99.90;;;;;;5012871;28;20523;-59
2022/08/04 04:17:02;;;;;;;18.10;6.07;;;17.80;99.90;;;;;;5016579;28;20040;-62
2022/08/04 04:19:47;;;;;;;12.93;5.15;;;17.80;99.90;;;;;;5030795;28;20573;-66
2022/08/04 04:22:13;;;;;;;10.98;4.45;;;17.80;99.90;;;;;;5051417;28;20420;-60
2022/08/04 04:24:42;;;;;;;15.32;5.90;;;17.80;99.90;;;;;;5052587;28;20041;-67
2022/08/04 04:27:15;;;;;;;16.17;5.47;;;17.80;99.90;;;;;;5051783;28;20131;-69
2022/08/04 04:29:56;;;;;;;19.70;6.13;;;17.80;99.90;;;;;;5046929;28;20284;-65
2022/08/04 04:32:35;;;;;;;23.00;6.10;;;17.80;99.90;;;;;;5042717;28;20040;-62
2022/08/04 04:35:21;;;;;;;11.43;5.18;;;17.90;99.90;;;;;;5050808;28;20527;-58
2022/08/04 04:38:06;;;;;;;21.60;7.07;;;17.90;99.90;;;;;;5047539;28;20041;-66
2022/08/04 04:40:38;;;;;;;12.77;5.28;;;18.00;99.90;;;;;;5000020;28;20052;-59
2022/08/04 04:43:35;;;;;;;12.75;5.22;;;18.10;99.90;;;;;;5024947;28;20059;-65
2022/08/04 04:46:22;;;;;;;19.90;6.22;;;18.10;99.90;;;;;;5042294;28;20255;-63
2022/08/04 04:48:52;;;;;;;19.05;6.97;;;18.20;99.90;;;;;;5019894;28;20052;-63
2022/08/04 04:51:35;;;;;;;16.25;6.05;;;18.30;99.90;;;;;;5030142;28;20049;-61
2022/08/04 04:54:09;;;;;;;23.50;7.75;;;18.30;99.90;;;;;;5023035;28;20041;-58
2022/08/04 04:56:47;;;;;;;19.67;7.00;;;18.40;99.90;;;;;;5047534;28;20049;-65
2022/08/04 04:59:18;;;;;;;21.42;7.43;;;18.50;99.90;;;;;;5041302;28;20042;-66
2022/08/04 05:02:19;;;;;;;10.75;6.18;;;18.50;99.90;;;;;;5006033;28;20500;-65
2022/08/04 05:04:53;;;;;;;10.40;5.18;;;18.60;99.90;;;;;;5047391;28;20098;-58
2022/08/04 05:07:32;;;;;;;13.85;6.32;;;18.70;99.90;;;;;;5024112;28;20049;-65
2022/08/04 05:10:25;;;;;;;22.35;8.50;;;18.80;99.90;;;;;;5023889;28;20458;-57
2022/08/04 05:13:13;;;;;;;24.40;9.15;;;18.90;99.90;;;;;;5030351;28;20155;-69
2022/08/04 05:15:43;;;;;;;19.90;8.40;;;19.10;99.90;;;;;;5014343;28;20479;-58
2022/08/04 05:18:16;;;;;;;22.77;8.68;;;19.20;99.90;;;;;;5040449;28;20121;-66
2022/08/04 05:20:54;;;;;;;19.00;7.85;;;19.40;99.90;;;;;;5023850;28;20041;-58
2022/08/04 05:23:29;;;;;;;23.23;8.70;;;19.50;99.90;;;;;;5047732;28;20047;-60
2022/08/04 05:25:58;;;;;;;21.60;9.18;;;19.60;99.90;;;;;;5013820;28;20052;-58
2022/08/04 05:28:37;;;;;;;23.33;9.40;;;19.70;99.90;;;;;;5044543;28;20080;-66
2022/08/04 05:31:17;;;;;;;22.27;8.82;;;19.80;99.90;;;;;;5040246;28;20170;-65
2022/08/04 05:33:57;;;;;;;32.30;11.18;;;19.90;99.90;;;;;;5008961;28;20054;-68
2022/08/04 05:36:30;;;;;;;;;;;20.00;99.90;;;;;;5007865;28;20519;-58
2022/08/04 05:38:59;;;;;;;22.13;8.27;;;20.00;99.90;;;;;;5011102;28;20570;-58
2022/08/04 05:41:26;;;;;;;21.08;9.07;;;20.10;99.90;;;;;;5043401;28;20041;-62
2022/08/04 05:43:53;;;;;;;25.70;9.15;;;20.20;99.90;;;;;;5046641;28;20045;-59
2022/08/04 05:46:19;;;;;;;27.73;9.63;;;20.30;99.90;;;;;;5048185;28;20045;-64
2022/08/04 05:48:47;;;;;;;32.08;8.50;;;20.40;99.90;;;;;;5046789;28;20044;-58
2022/08/04 05:51:14;;;;;;;27.67;9.20;;;20.40;99.90;;;;;;5012798;28;20050;-59
2022/08/04 05:53:43;;;;;;;19.60;9.40;;;20.50;99.90;;;;;;5007115;28;20053;-68
2022/08/04 05:56:10;;;;;;;25.52;10.43;;;20.70;99.90;;;;;;4990010;28;20050;-58
2022/08/04 05:58:37;;;;;;;29.48;9.18;;;20.70;99.90;;;;;;5008049;28;20405;-62
2022/08/04 06:01:05;;;;;;;18.90;8.57;;;20.80;99.90;;;;;;5004969;28;20081;-68
2022/08/04 06:03:34;;;;;;;24.52;8.70;;;20.90;99.90;;;;;;5006696;28;20065;-67
2022/08/04 06:06:01;;;;;;;28.97;9.93;;;20.90;99.90;;;;;;5006809;28;20049;-59
2022/08/04 06:08:29;;;;;;;22.45;8.43;;;21.00;99.90;;;;;;5001130;28;20138;-67
2022/08/04 06:10:57;;;;;;;23.98;8.70;;;21.10;99.90;;;;;;5005471;28;20141;-59
2022/08/04 06:13:34;;;;;;;24.50;9.05;;;21.20;99.90;;;;;;5007969;28;20361;-67
2022/08/04 06:16:01;;;;;;;24.00;9.25;;;21.20;99.90;;;;;;5007311;28;20045;-60
2022/08/04 06:18:29;;;;;;;21.02;8.18;;;21.30;99.90;;;;;;5005476;28;20754;-62
2022/08/04 06:20:58;;;;;;;29.60;8.98;;;21.40;99.90;;;;;;5005961;28;20041;-64
2022/08/04 06:23:28;;;;;;;26.38;8.65;;;21.50;99.90;;;;;;4988954;28;20049;-60
2022/08/04 06:25:59;;;;;;;19.77;8.23;;;21.50;99.90;;;;;;4999102;28;20508;-62
2022/08/04 06:28:26;;;;;;;19.70;8.20;;;21.50;99.90;;;;;;4993396;28;20049;-57
2022/08/04 06:30:54;;;;;;;21.58;8.32;;;21.60;99.90;;;;;;4989026;28;20386;-62
2022/08/04 06:33:32;;;;;;;22.77;8.05;;;21.60;99.90;;;;;;5007057;28;20041;-61
2022/08/04 06:36:00;;;;;;;27.42;8.20;;;21.70;99.90;;;;;;5005521;28;20590;-65
2022/08/04 06:38:28;;;;;;;23.23;7.65;;;21.80;99.90;;;;;;5006368;28;20034;-58
2022/08/04 06:40:56;;;;;;;19.20;7.05;;;21.90;99.90;;;;;;5001929;28;20049;-63
2022/08/04 06:43:23;;;;;;;20.05;6.80;;;22.10;99.90;;;;;;5006944;28;20045;-67
2022/08/04 06:45:50;;;;;;;18.73;6.90;;;22.10;99.90;;;;;;5006658;28;20124;-57
2022/08/04 06:48:17;;;;;;;25.92;6.95;;;22.20;99.90;;;;;;4987817;28;20052;-62
2022/08/04 06:50:46;;;;;;;20.38;5.80;;;22.30;99.90;;;;;;5004903;28;20815;-61
2022/08/04 06:53:12;;;;;;;19.27;6.50;;;22.50;99.90;;;;;;4999977;28;20104;-60
2022/08/04 06:55:41;;;;;;;28.85;6.53;;;22.60;99.90;;;;;;5006937;28;20050;-57
2022/08/04 06:58:08;;;;;;;22.80;7.03;;;22.90;99.90;;;;;;5013462;28;20046;-65
2022/08/04 07:00:35;;;;;;;24.83;8.48;;;23.00;99.90;;;;;;5024117;28;20140;-63
2022/08/04 07:03:02;;;;;;;24.30;6.55;;;23.10;99.90;;;;;;5025154;28;20531;-61
2022/08/04 07:05:28;;;;;;;23.77;7.50;;;23.10;99.90;;;;;;5025851;28;21227;-65
2022/08/04 07:07:55;;;;;;;19.25;6.85;;;23.10;99.90;;;;;;5026705;28;20431;-65
2022/08/04 07:10:26;;;;;;;25.42;7.50;;;23.20;99.90;;;;;;5016063;28;20049;-67
2022/08/04 07:12:54;;;;;;;23.02;7.10;;;23.30;99.90;;;;;;5011575;28;20046;-62
2022/08/04 07:15:21;;;;;;;16.83;7.60;;;23.40;99.90;;;;;;5005818;28;20609;-61
2022/08/04 07:17:48;;;;;;;22.50;8.80;;;23.40;99.90;;;;;;5007729;28;20060;-61
2022/08/04 07:20:14;;;;;;;18.70;7.85;;;23.50;99.90;;;;;;4991438;28;20084;-54
2022/08/04 07:22:41;;;;;;;19.20;6.68;;;23.60;99.90;;;;;;5007376;28;20089;-60
2022/08/04 07:25:11;;;;;;;18.00;5.85;;;23.60;99.90;;;;;;5025670;28;20051;-60
2022/08/04 07:27:38;;;;;;;14.10;6.50;;;23.70;99.90;;;;;;5006808;28;20111;-63
2022/08/04 07:30:07;;;;;;;13.82;5.15;;;24.00;99.90;;;;;;5026379;28;20037;-65
2022/08/04 07:32:34;;;;;;;8.50;4.00;;;24.30;99.90;;;;;;5016682;28;20053;-61
2022/08/04 07:35:00;;;;;;;16.58;4.40;;;24.50;99.90;;;;;;5024271;28;20083;-58
2022/08/04 07:37:26;;;;;;;15.70;4.70;;;24.80;99.90;;;;;;5007834;28;20089;-58
2022/08/04 07:39:52;;;;;;;27.27;5.30;;;24.90;99.90;;;;;;5007842;28;20072;-60
2022/08/04 07:42:19;;;;;;;24.25;4.43;;;25.00;99.80;;;;;;5024513;28;20068;-57
2022/08/04 07:44:45;;;;;;;22.13;4.82;;;25.00;99.90;;;;;;5024389;28;20057;-60
2022/08/04 07:47:11;;;;;;;15.05;4.43;;;25.20;99.90;;;;;;5007207;28;20096;-61
2022/08/04 07:49:37;;;;;;;24.35;4.85;;;25.30;96.20;;;;;;4987883;28;20046;-61
2022/08/04 07:52:05;;;;;;;13.13;3.67;;;25.50;95.80;;;;;;5025492;28;20037;-63
2022/08/04 07:54:32;;;;;;;20.23;3.70;;;25.70;96.70;;;;;;5025003;28;20112;-57
2022/08/04 07:56:58;;;;;;;16.63;3.60;;;25.90;94.50;;;;;;5005949;28;20037;-64
2022/08/04 07:59:24;;;;;;;9.60;3.28;;;26.10;93.00;;;;;;5019238;28;20415;-60
2022/08/04 08:01:51;;;;;;;17.63;3.60;;;26.40;90.30;;;;;;5021508;28;20050;-64
2022/08/04 08:04:18;;;;;;;19.23;3.53;;;26.70;81.40;;;;;;5005293;28;20435;-61
2022/08/04 08:06:43;;;;;;;18.55;3.10;;;26.70;75.10;;;;;;4987678;28;20096;-66
2022/08/04 08:09:17;;;;;;;17.58;3.75;;;26.70;72.80;;;;;;5021120;28;20077;-68
2022/08/04 08:11:46;;;;;;;11.82;3.88;;;26.90;73.60;;;;;;5022780;28;20585;-57
2022/08/04 08:14:12;;;;;;;5.50;3.03;;;26.90;69.70;;;;;;5025073;28;20484;-63
2022/08/04 08:16:38;;;;;;;12.98;3.10;;;26.90;73.60;;;;;;5007337;28;20137;-58
2022/08/04 08:19:04;;;;;;;7.18;3.20;;;27.00;81.50;;;;;;5026143;28;20124;-67
2022/08/04 08:21:30;;;;;;;10.45;3.38;;;27.10;71.60;;;;;;5027289;28;20107;-68
2022/08/04 08:23:57;;;;;;;17.33;3.67;;;27.10;69.10;;;;;;5025934;28;20729;-63
2022/08/04 08:26:22;;;;;;;13.02;3.47;;;27.30;72.60;;;;;;5026524;28;20129;-66
2022/08/04 08:28:48;;;;;;;11.20;3.15;;;27.50;62.10;;;;;;5008007;28;20155;-66
2022/08/04 08:31:14;;;;;;;7.10;2.88;;;27.60;66.10;;;;;;5021176;28;20481;-64
2022/08/04 08:33:40;;;;;;;8.70;2.80;;;27.60;62.40;;;;;;5024885;28;20045;-62
2022/08/04 08:36:16;;;;;;;9.23;3.03;;;27.80;64.00;;;;;;5008667;28;20051;-68
2022/08/04 08:39:17;;;;;;;12.05;2.78;;;27.90;62.50;;;;;;5019478;28;20048;-65
2022/08/04 08:42:01;;;;;;;8.48;3.40;;;27.90;49.20;;;;;;5005683;28;20049;-60
2022/08/04 08:44:48;;;;;;;22.05;4.28;;;27.70;49.50;;;;;;5020449;28;20052;-68
2022/08/04 08:47:39;;;;;;;18.63;3.28;;;27.60;49.20;;;;;;5019319;28;20045;-62
2022/08/04 08:50:44;;;;;;;8.50;3.35;;;27.50;52.40;;;;;;5020998;28;20107;-62
2022/08/04 08:53:41;;;;;;;13.70;3.33;;;27.50;55.20;;;;;;5025452;28;20628;-66
2022/08/04 08:56:31;;;;;;;16.08;3.75;;;27.70;57.30;;;;;;5004612;28;20176;-66
2022/08/04 08:59:09;;;;;;;9.30;2.83;;;27.70;41.10;;;;;;5022577;28;20459;-65
2022/08/04 09:02:16;;;;;;;11.60;3.15;;;27.60;47.00;;;;;;5017623;28;20049;-60
2022/08/04 09:04:42;;;;;;;11.57;2.72;;;27.70;51.90;;;;;;4997588;28;20427;-63
2022/08/04 09:07:44;;;;;;;12.48;3.05;;;27.80;51.70;;;;;;5025313;28;20084;-65
2022/08/04 09:10:35;;;;;;;7.47;2.83;;;28.10;39.10;;;;;;5023599;28;20041;-66
2022/08/04 09:13:25;;;;;;;10.93;3.03;;;28.30;32.40;;;;;;5025731;28;20045;-63
2022/08/04 09:16:13;;;;;;;10.73;3.13;;;28.40;53.30;;;;;;5022752;28;20056;-61
2022/08/04 09:19:05;;;;;;;7.07;2.55;;;28.40;37.70;;;;;;5023799;28;20124;-62
2022/08/04 09:22:07;;;;;;;14.00;2.95;;;28.10;33.80;;;;;;5025948;28;20117;-61
2022/08/04 09:25:00;;;;;;;9.60;2.58;;;27.90;52.10;;;;;;5022952;28;20768;-60
2022/08/04 09:27:43;;;;;;;13.07;2.70;;;27.90;56.90;;;;;;5006717;28;20525;-59
2022/08/04 09:30:11;;;;;;;13.23;3.20;;;28.10;48.40;;;;;;4986872;28;20045;-66
2022/08/04 09:32:58;;;;;;;11.52;2.63;;;28.00;50.80;;;;;;5005526;28;20053;-66
2022/08/04 09:35:43;;;;;;;10.52;2.22;;;28.10;48.60;;;;;;5023803;28;20045;-64
2022/08/04 09:38:15;;;;;;;13.75;2.88;;;28.20;42.70;;;;;;5021280;28;20574;-68
2022/08/04 09:41:14;;;;;;;6.47;2.70;;;28.30;56.80;;;;;;5007791;28;20061;-63
2022/08/04 09:43:42;;;;;;;12.20;2.53;;;28.00;54.10;;;;;;5021702;28;20472;-61
2022/08/04 09:46:25;;;;;;;9.35;2.75;;;27.90;54.50;;;;;;5021078;28;20042;-69
2022/08/04 09:49:02;;;;;;;7.82;2.92;;;27.90;59.00;;;;;;5021712;28;20112;-64
2022/08/04 09:51:44;;;;;;;11.95;2.20;;;27.90;64.80;;;;;;5022929;28;20077;-66
2022/08/04 09:54:50;;;;;;;10.75;3.10;;;28.10;59.90;;;;;;5004625;28;20151;-64
2022/08/04 09:58:05;;;;;;;8.85;2.97;;;28.00;56.20;;;;;;4974919;28;20062;-66
2022/08/04 10:00:39;;;;;;;7.70;2.92;;;28.00;69.80;;;;;;4937359;29;20043;-66
2022/08/04 10:03:06;;;;;;;8.75;2.55;;;28.00;50.80;;;;;;4942409;29;20066;-64
2022/08/04 10:05:46;;;;;;;8.98;2.00;;;27.90;68.60;;;;;;4967865;28;20053;-63
2022/08/04 10:08:34;;;;;;;10.23;2.40;;;28.10;69.30;;;;;;5016007;28;20049;-61
2022/08/04 10:11:12;;;;;;;6.78;2.70;;;28.30;68.80;;;;;;5019321;28;20088;-61
2022/08/04 10:13:44;;;;;;;10.73;3.20;;;28.60;74.60;;;;;;5008489;28;20044;-58
2022/08/04 10:16:36;;;;;;;9.23;3.10;;;28.40;65.30;;;;;;4995812;28;20041;-67
2022/08/04 10:19:26;;;;;;;10.25;3.05;;;28.10;64.90;;;;;;5025933;28;20129;-59
2022/08/04 10:22:11;;;;;;;9.50;3.70;;;27.90;72.10;;;;;;4988561;28;20053;-58
2022/08/04 10:25:01;;;;;;;6.18;3.20;;;27.80;65.60;;;;;;5025190;28;20072;-64
2022/08/04 10:27:44;;;;;;;12.40;4.18;;;27.80;77.10;;;;;;5007934;28;20041;-59
2022/08/04 10:30:12;;;;;;;12.20;3.53;;;27.80;64.10;;;;;;5006317;28;20052;-58
2022/08/04 10:33:11;;;;;;;12.18;3.72;;;27.70;76.80;;;;;;5025905;28;20053;-60
2022/08/04 10:35:40;;;;;;;;;;;27.60;81.10;;;;;;5025342;28;20138;-68
2022/08/04 10:38:12;;;;;;;7.13;3.90;;;27.60;87.90;;;;;;5023066;28;19921;-61
2022/08/04 10:40:56;;;;;;;11.68;4.15;;;27.70;87.80;;;;;;5024017;28;20053;-64
2022/08/04 10:43:38;;;;;;;;;;;27.80;76.60;;;;;;5024509;28;20092;-57
2022/08/04 10:46:13;;;;;;;9.10;4.30;;;27.80;70.10;;;;;;5025285;28;19924;-62
2022/08/04 10:49:00;;;;;;;7.20;3.35;;;27.70;65.70;;;;;;5017497;28;20045;-59
2022/08/04 10:51:44;;;;;;;7.55;3.35;;;27.50;68.20;;;;;;5017294;28;20397;-58
2022/08/04 10:54:42;;;;;;;6.97;2.90;;;27.20;67.30;;;;;;5019796;28;20503;-64
2022/08/04 10:57:19;;;;;;;7.68;2.80;;;27.00;66.50;;;;;;5026866;28;20056;-65
2022/08/04 11:00:03;;;;;;;8.27;2.70;;;27.00;83.80;;;;;;5019733;28;20087;-69
2022/08/04 11:03:14;;;;;;;7.93;2.22;;;27.20;70.60;;;;;;5005174;28;20150;-67
2022/08/04 11:05:45;;;;;;;9.18;3.33;;;27.50;86.30;;;;;;4965232;28;20125;-66
2022/08/04 11:08:34;;;;;;;4.85;2.72;;;27.70;64.40;;;;;;5015334;28;20060;-64
2022/08/04 11:11:34;;;;;;;7.40;2.92;;;27.40;65.60;;;;;;4990637;28;20136;-66
2022/08/04 11:14:14;;;;;;;8.38;2.45;;;27.20;67.90;;;;;;5026269;28;20059;-63
2022/08/04 11:17:02;;;;;;;11.38;2.80;;;27.00;66.80;;;;;;5005563;28;20053;-64
2022/08/04 11:19:41;;;;;;;6.53;2.08;;;26.90;66.00;;;;;;4981385;28;20530;-69
2022/08/04 11:22:22;;;;;;;;;;;26.90;85.80;;;;;;5008864;28;20049;-57
2022/08/04 11:25:18;;;;;;;6.68;3.63;;;26.90;82.20;;;;;;5007193;28;19928;-58
2022/08/04 11:28:06;;;;;;;10.77;4.35;;;26.90;84.50;;;;;;5007373;28;20049;-58
2022/08/04 11:30:46;;;;;;;9.05;4.80;;;26.60;91.20;;;;;;4997337;28;20057;-66
2022/08/04 11:33:15;;;;;;;21.40;4.97;;;26.40;93.30;;;;;;4997588;28;20052;-64
2022/08/04 11:35:54;;;;;;;11.48;3.25;;;26.00;96.50;;;;;;5026571;28;20049;-61
2022/08/04 11:38:35;;;;;;;12.50;3.38;;;25.60;99.60;;;;;;5005523;28;20051;-66
2022/08/04 11:41:09;;;;;;;7.80;2.85;;;25.30;99.90;;;;;;5025717;28;20033;-64
2022/08/04 11:43:47;;;;;;;9.45;3.05;;;25.00;99.90;;;;;;5023815;28;20120;-58
2022/08/04 11:46:22;;;;;;;6.00;2.53;;;24.90;99.90;;;;;;4993290;28;20057;-60
2022/08/04 11:49:00;;;;;;;9.52;2.35;;;24.90;99.90;;;;;;5026160;28;20088;-64
2022/08/04 11:51:27;;;;;;;6.77;2.00;;;25.00;99.90;;;;;;5025586;28;20047;-61
2022/08/04 11:53:54;;;;;;;7.07;2.13;;;25.10;99.90;;;;;;5029694;28;20312;-60
2022/08/04 11:56:20;;;;;;;10.05;2.45;;;25.20;99.90;;;;;;5027445;28;20056;-68
2022/08/04 11:58:46;;;;;;;11.05;2.15;;;25.20;99.90;;;;;;5028465;28;20079;-62
2022/08/04 12:01:27;;;;;;;2.70;1.15;;;25.10;99.90;;;;;;5027997;28;20128;-61
2022/08/04 12:04:02;;;;;;;4.30;1.20;;;25.00;99.90;;;;;;5027966;28;20125;-58
2022/08/04 12:06:38;;;;;;;4.15;1.02;;;24.90;99.90;;;;;;5027914;28;20089;-67
2022/08/04 12:09:16;;;;;;;6.30;0.93;;;24.90;99.90;;;;;;5028130;28;20038;-65
2022/08/04 12:11:52;;;;;;;1.65;0.73;;;24.80;99.90;;;;;;5028837;28;20048;-55
2022/08/04 12:14:41;;;;;;;2.85;0.88;;;24.70;99.90;;;;;;5011647;28;20054;-58
2022/08/04 12:17:09;;;;;;;1.75;0.93;;;24.60;99.90;;;;;;5023931;28;20053;-60
2022/08/04 12:20:02;;;;;;;4.63;0.98;;;24.40;99.90;;;;;;5011221;28;20041;-61
2022/08/04 12:22:31;;;;;;;0.75;0.75;;;24.40;99.90;;;;;;5010061;28;21032;-56
2022/08/04 12:25:06;;;;;;;2.97;1.40;;;24.40;99.90;;;;;;5011029;28;20056;-57
2022/08/04 12:27:38;;;;;;;5.03;1.30;;;24.40;99.90;;;;;;5028338;28;20047;-64
2022/08/04 12:30:07;;;;;;;5.28;1.65;;;24.50;99.90;;;;;;5028102;28;20049;-59
2022/08/04 12:32:45;;;;;;;4.63;1.30;;;24.50;99.90;;;;;;5026051;28;20045;-57
2022/08/04 12:35:19;;;;;;;6.88;1.38;;;24.60;99.90;;;;;;5010237;28;20414;-62
2022/08/04 12:37:58;;;;;;;3.55;1.05;;;24.70;99.90;;;;;;5027288;28;20053;-58
2022/08/04 12:40:40;;;;;;;3.88;1.02;;;24.70;99.90;;;;;;5007731;28;20053;-62
2022/08/04 12:43:16;;;;;;;6.65;0.98;;;24.70;99.90;;;;;;5008953;28;20052;-63
2022/08/04 12:45:47;;;;;;;3.05;1.02;;;24.80;98.90;;;;;;5028141;28;20049;-56
2022/08/04 12:48:14;;;;;;;8.68;1.38;;;24.80;99.90;;;;;;5021446;28;20038;-55
2022/08/04 12:50:41;;;;;;;5.10;0.90;;;24.70;99.90;;;;;;5026031;28;20139;-63
2022/08/04 12:53:12;;;;;;;4.10;1.17;;;24.70;99.90;;;;;;4994742;28;20081;-56
2022/08/04 12:55:46;;;;;;;6.20;1.27;;;24.70;92.80;;;;;;5005275;28;20061;-60
2022/08/04 12:58:17;;;;;;;6.90;1.20;;;24.70;94.50;;;;;;5017592;28;20057;-65
2022/08/04 13:00:51;;;;;;;10.82;1.83;;;24.60;99.90;;;;;;5023690;28;20215;-58
2022/08/04 13:03:18;;;;;;;6.35;1.98;;;24.50;99.90;;;;;;5026801;28;20100;-66
2022/08/04 13:05:45;;;;;;;4.78;1.42;;;24.30;99.90;;;;;;5008637;28;20049;-62
2022/08/04 13:08:12;;;;;;;3.50;1.00;;;24.20;99.90;;;;;;5026831;28;20125;-63
2022/08/04 13:10:46;;;;;;;5.60;1.20;;;24.10;99.90;;;;;;5026447;28;20511;-56
2022/08/04 13:13:17;;;;;;;2.42;1.20;;;23.90;99.90;;;;;;5023785;28;20046;-56
2022/08/04 13:15:52;;;;;;;5.47;0.98;;;23.90;99.70;;;;;;5026066;28;20095;-58
2022/08/04 13:18:20;;;;;;;3.47;1.02;;;23.80;99.00;;;;;;5025161;28;20046;-52
2022/08/04 13:20:46;;;;;;;3.88;0.80;;;23.70;94.10;;;;;;5024674;28;20111;-57
2022/08/04 13:23:15;;;;;;;2.35;1.02;;;23.70;92.70;;;;;;5028573;28;20896;-58
2022/08/04 13:25:43;;;;;;;;;;;23.70;94.70;;;;;;5026422;28;20045;-64
2022/08/04 13:28:23;;;;;;;4.15;1.08;;;23.70;95.10;;;;;;5028787;28;19975;-61
2022/08/04 13:30:58;;;;;;;4.10;0.98;;;23.70;94.70;;;;;;5023996;28;20048;-57
2022/08/04 13:33:33;;;;;;;10.32;1.20;;;23.80;96.30;;;;;;5027985;28;20049;-62
2022/08/04 13:35:59;;;;;;;3.42;1.20;;;23.90;93.90;;;;;;5007559;28;20049;-55